Sonic Adventure (DX): Time Rankings

Records: Times | Rings | Scores | Races | Bosses | Freestyle
Leaders: Times | Rings | Scores | Races | Bosses | Freestyle | Overall
Rank Player Percent Points Date
1 Gamepro011 98.8% 67 11-29-21
2 Niczur 98.5% 84 11-29-21
3 Sonicspeedruner 98.0% 117 11-29-21
4 Nim 94.2% 343 11-29-21
5 Jawzun 93.5% 381 11-29-21
6 Dashjump 93.5% 382 11-29-21
7 DarkPolarNight 92.6% 437 11-29-21
8 drminus 90.4% 566 11-29-21
9 F-Man 90.3% 572 11-29-21
10 THC98 90.0% 592 11-29-21
11 ike6252 88.0% 708 11-29-21
12 Avento128bits 87.8% 724 11-29-21
13 francisco 87.2% 760 11-29-21
14 DarkspinesSonic 86.7% 786 11-29-21
15 ethmar 86.7% 788 11-29-21
16 Marth 86.6% 791 11-29-21
17 frankoredstrato 85.4% 866 11-29-21
18 chainchump 83.8% 963 11-29-21
19 TheRealShadnic 83.6% 971 11-29-21
20 Paragod 82.5% 1039 11-29-21
21 HyperSonic7701 82.3% 1051 11-29-21
22 Calfd 82.0% 1070 11-29-21
23 Coolfansonic 79.5% 1216 11-29-21
24 InferSaime 79.1% 1240 11-29-21
25 xXMegaManXx 77.8% 1318 11-29-21
26 Stefan 77.8% 1320 11-29-21
27 PfoSonic 77.2% 1351 11-29-21
28 bertin 75.6% 1451 11-29-21
29 yoshifan 75.2% 1473 11-29-21
30 Dave Cramer 73.4% 1576 11-29-21
31 RPGnutter 73.3% 1586 11-29-21
32 sonicam 71.7% 1679 11-29-21
33 Cybrax 71.3% 1703 11-29-21
34 Dekuboy 70.3% 1761 11-29-21
35 CoEmpathy 69.6% 1802 11-29-21
36 Ring Rush 68.9% 1848 11-29-21
37 mike89 68.0% 1900 11-29-21
38 NintenDan 67.8% 1910 11-29-21
39 chaos shadow 67.7% 1918 11-29-21
40 a_moustache 66.6% 1986 11-29-21
41 SkyLights 64.4% 2115 11-29-21
42 iden1 63.7% 2155 11-29-21
43 Combo 62.9% 2201 11-29-21
44 SADXTryHard 60.5% 2348 11-29-21
45 P1 Pause 60.1% 2370 11-29-21
46 WeegeeZV 58.8% 2448 11-29-21
47 Groudon199 58.3% 2479 11-29-21
48 AxlThunder 57.7% 2513 11-29-21
49 Game_Complete 57.4% 2532 11-29-21
50 Shadow Jacky 57.3% 2537 11-29-21
51 VMU Player Banned 56.4% 2587 11-29-21
52 Thorn 56.3% 2595 11-29-21
53 SB737 55.1% 2666 11-29-21
54 The Knuckles Chao 54.9% 2678 11-29-21
55 SadisticMystic 54.9% 2681 11-29-21
56 Chao_Fan 54.8% 2684 11-29-21
57 Mastakirby 54.3% 2716 11-29-21
57 Parax 54.3% 2716 11-29-21
59 OmegaDJ 53.7% 2750 11-29-21
60 KinkyCadence 53.7% 2753 11-29-21
61 mauserman 53.6% 2755 11-29-21
62 LittleBigness 53.6% 2759 11-29-21
63 Psyknux 53.3% 2776 11-29-21
64 Auriman1 53.1% 2787 11-29-21
65 magnum12 53.0% 2792 11-29-21
66 Turbos 52.6% 2816 11-29-21
67 GerbilSoft 51.9% 2858 11-29-21
68 GreatStar 51.5% 2880 11-29-21
69 Webber3000 51.2% 2900 11-29-21
70 Hipertails12 50.5% 2942 11-29-21
71 N 50.2% 2959 11-29-21
72 SPVLABS 49.1% 3024 11-29-21
73 James_Bertolli 48.3% 3073 11-29-21
74 Cream147 47.9% 3096 11-29-21
75 welldooder64 47.0% 3147 11-29-21
76 Skylace 46.8% 3160 11-29-21
77 Quartz 46.7% 3169 11-29-21
78 Omega Rafael Santos 46.6% 3172 11-29-21
79 Diamond 46.4% 3182 11-29-21
80 Psymar 46.4% 3184 11-29-21
81 SonicWinDX 45.6% 3231 11-29-21
82 teamblackarms 45.4% 3245 11-29-21
83 Cyan Ryan 44.8% 3280 11-29-21
84 Andrea Ritsu 44.7% 3283 11-29-21
85 buddychaos0415 44.5% 3297 11-29-21
86 SilverSonic 43.9% 3335 11-29-21
87 SilvertheAlmighty 43.5% 3358 11-29-21
88 paulie9990 43.4% 3364 11-29-21
89 sonicd5 43.4% 3365 11-29-21
90 metanightmare22 42.6% 3411 11-29-21
91 itsPersonnal 42.6% 3412 11-29-21
92 lordmetalsonic 40.4% 3539 11-29-21
93 Arch 40.1% 3560 11-29-21
94 videogamemaster777 39.2% 3610 11-29-21
95 Termon 39.0% 3622 11-29-21
96 supersonicfan 38.8% 3635 11-29-21
97 Zethor 38.6% 3647 11-29-21
98 Drakodan 38.1% 3676 11-29-21
99 LilZero 38.0% 3684 11-29-21
100 Kanimayo_Jp 37.9% 3691 11-29-21
101 supersonic465 37.8% 3698 11-29-21
102 FuzZerd 37.5% 3713 11-29-21
103 JamminX42 37.3% 3726 11-29-21
104 eggFL 37.1% 3735 11-29-21
105 BigAL49 36.9% 3752 11-29-21
106 Don 36.3% 3788 11-29-21
107 danieldude 36.2% 3790 11-29-21
108 Siavash Tazari 35.4% 3839 11-29-21
109 Zurggriff 35.2% 3848 11-29-21
110 Fr3nZy 35.1% 3859 11-29-21
111 f0rever_zer0 34.6% 3887 11-29-21
112 Cod4Scopes 34.1% 3916 11-29-21
113 LinksDarkArrows 33.5% 3952 11-29-21
114 Austinf 33.4% 3959 11-29-21
115 Therio 33.1% 3974 11-29-21
116 elecmouse101 32.7% 3997 11-29-21
117 Staf 32.4% 4016 11-29-21
118 MiStEr_ShAoLiN 32.1% 4036 11-29-21
119 ModifiedMonkee 31.8% 4053 11-29-21
119 R3FR4G 31.8% 4053 11-29-21
121 Twilisailor 31.7% 4059 11-29-21
122 videogamer1014 31.4% 4076 11-29-21
123 BrokenArthritis 31.3% 4085 11-29-21
124 Xia 30.8% 4110 11-29-21
125 AC-Tygo 30.8% 4115 11-29-21
126 welshmoose05 30.5% 4132 11-29-21
127 OddCook 30.0% 4158 11-29-21
128 The Great Lord Mick 29.6% 4181 11-29-21
129 Aitamen 29.2% 4209 11-29-21
130 Mcshuggets 29.0% 4221 11-29-21
131 Maxinfamily 28.9% 4225 11-29-21
132 Matt_TY 28.9% 4228 11-29-21
133 dabestgamer 28.5% 4249 11-29-21
134 joecoolgames 28.4% 4254 11-29-21
135 SuperBlitzCraig 28.0% 4281 11-29-21
136 Irregular Zero 27.9% 4285 11-29-21
137 Shadowthegreat 27.2% 4326 11-29-21
138 SuperSonic101 27.2% 4328 11-29-21
139 superjupi 27.1% 4331 11-29-21
140 Rolken 26.8% 4351 11-29-21
141 Hunters13 26.6% 4363 11-29-21
142 thewaytodawnnn 26.4% 4375 11-29-21
143 sonamyfan666 26.3% 4382 11-29-21
144 iarebored 26.0% 4397 11-29-21
145 koinu93 25.9% 4402 11-29-21
146 Spinballwizard 25.9% 4406 11-29-21
147 SaviourDC 25.7% 4414 11-29-21
147 SonicKnuckles 25.7% 4414 11-29-21
149 Pokemonmaster888 24.9% 4464 11-29-21
150 EngiNerd 24.9% 4466 11-29-21
151 adf 24.8% 4470 11-29-21
152 SonicAD 24.7% 4473 11-29-21
153 Megaman EXE565 23.9% 4524 11-29-21
154 The T 23.6% 4543 11-29-21
155 andy120195 23.4% 4550 11-29-21
156 Sonic Singularity 23.1% 4573 11-29-21
157 Platformer 22.8% 4591 11-29-21
158 timpkmn89 22.5% 4608 11-29-21
159 SeaWolf 22.4% 4611 11-29-21
160 Swift Hobo 22.2% 4626 11-29-21
161 Sondow 21.6% 4660 11-29-21
162 Rickyman48 21.2% 4681 11-29-21
163 KitsuneYamaro 21.1% 4691 11-29-21
164 FoxBoy 20.9% 4701 11-29-21
165 Sm4sh 20.8% 4707 11-29-21
166 TFEC Headshot 20.3% 4739 11-29-21
167 Jerzia 20.2% 4741 11-29-21
168 Kogen Player Banned 19.9% 4759 11-29-21
169 Badlex727 19.6% 4780 11-29-21
170 Starlight Sable 19.5% 4783 11-29-21
171 IsisDazs 19.0% 4817 11-29-21
172 HyperSonic64 18.8% 4828 11-29-21
173 Powerjohn25 18.7% 4831 11-29-21
174 crazy1993 18.6% 4840 11-29-21
175 Tethys 18.5% 4841 11-29-21
176 andres430 18.4% 4848 11-29-21
176 Modest 18.4% 4848 11-29-21
178 SonicU260 17.5% 4904 11-29-21
179 MPit08 17.1% 4928 11-29-21
180 Swinkly 17.0% 4935 11-29-21
181 iSonicKid2K 16.3% 4975 11-29-21
182 dShadow 16.1% 4985 11-29-21
183 Cutiefox 15.8% 5006 11-29-21
184 Miles9999 15.6% 5019 11-29-21
185 Chawkk 15.5% 5025 11-29-21
186 Monkeh 15.4% 5027 11-29-21
187 Crispian 15.4% 5031 11-29-21
188 DaDude 14.9% 5057 11-29-21
189 Drflash55 14.6% 5075 11-29-21
190 Bass 14.4% 5089 11-29-21
191 Destroyer121121 14.2% 5098 11-29-21
192 Cruizer 14.2% 5101 11-29-21
193 Yish 14.1% 5108 11-29-21
194 zapp 14.0% 5109 11-29-21
195 neaolas 13.9% 5116 11-29-21
196 UninspiredUsername 13.8% 5124 11-29-21
197 superiorsonic 13.7% 5131 11-29-21
198 gamefreak1292 13.5% 5139 11-29-21
199 Cooljay 13.2% 5157 11-29-21
200 Sora_yx 13.0% 5170 11-29-21
201 Chaos_Overlord 12.4% 5205 11-29-21
202 Valfore 12.0% 5229 11-29-21
203 GarnetPrincess 11.9% 5239 11-29-21
204 Dage4Aquatic 11.7% 5246 11-29-21
205 soniccoloursunleashed 11.6% 5256 11-29-21
206 ShinigamiMachine 11.6% 5257 11-29-21
207 Sonicsuperstar1 11.1% 5285 11-29-21
208 FocusSight64 10.8% 5303 11-29-21
209 booo95 10.7% 5308 11-29-21
210 Werey 10.7% 5310 11-29-21
211 SirTobbii 10.5% 5320 11-29-21
212 Mo Player Banned 10.4% 5323 11-29-21
213 sonicspeed 10.3% 5329 11-29-21
214 Jua Rever 10.3% 5331 11-29-21
215 Venick409 9.5% 5379 11-29-21
216 nman36 9.4% 5387 11-29-21
216 Sithwarrior26 9.4% 5387 11-29-21
218 CyberShadow 8.8% 5419 11-29-21
219 ingx24 8.8% 5420 11-29-21
220 dekki1234 8.6% 5432 11-29-21
221 Fozer 8.3% 5450 11-29-21
222 Egor305 8.2% 5454 11-29-21
223 Colomb_30 8.1% 5461 11-29-21
224 Regano1000 8.1% 5462 11-29-21
225 1stKirbyever 7.9% 5473 11-29-21
226 nuckrieg 7.7% 5487 11-29-21
227 TimTH 7.6% 5491 11-29-21
228 Brian_pso 7.5% 5499 11-29-21
229 douglas 7.3% 5507 11-29-21
230 TakaRikka 7.2% 5516 11-29-21
231 Th4tN1nj4Turtl3 7.1% 5519 11-29-21
232 Zip 7.1% 5520 11-29-21
233 wheatrich 6.9% 5536 11-29-21
234 Mariosonic15 6.7% 5544 11-29-21
235 ieatatsonic 6.5% 5558 11-29-21
235 MStitomix 6.5% 5558 11-29-21
237 niscool 6.5% 5559 11-29-21
238 HermitHelmet 6.4% 5562 11-29-21
239 Cort_pso 6.1% 5580 11-29-21
240 Got4n 6.1% 5583 11-29-21
241 ArthurVGCP 6.0% 5586 11-29-21
242 Triseena 6.0% 5587 11-29-21
243 Jose_15 5.8% 5598 11-29-21
244 Artie 5.6% 5609 11-29-21
245 SuperSonicfan9595 5.6% 5612 11-29-21
246 BlankTH 5.6% 5613 11-29-21
247 Ace747 5.4% 5625 11-29-21
248 HHNNBBHHN 5.3% 5626 11-29-21
249 Richied 5.2% 5635 11-29-21
250 Paixii 5.1% 5638 11-29-21
251 Aiko 5.1% 5640 11-29-21
252 BallzeH 4.8% 5659 11-29-21
252 FSSRandomvids 4.8% 5659 11-29-21
254 slade23 4.8% 5660 11-29-21
255 Jamixesa 4.7% 5662 11-29-21
256 PsyBorg 4.7% 5664 11-29-21
257 ArcticDragon 4.7% 5666 11-29-21
257 Mankster101 4.7% 5666 11-29-21
259 BecauseWarAnvil 4.6% 5669 11-29-21
260 Xandre69 4.5% 5674 11-29-21
261 Nickson98 4.5% 5678 11-29-21
262 Crydio 4.4% 5683 11-29-21
263 TheUltraBlur 4.4% 5684 11-29-21
264 MarewBFN 4.2% 5697 11-29-21
265 stanski 4.1% 5702 11-29-21
266 tal39h 4.0% 5705 11-29-21
267 knuckles_sonic8 3.9% 5714 11-29-21
268 Blue Infamy 3.8% 5719 11-29-21
269 ALundstrom10 3.8% 5720 11-29-21
270 p0ker 3.8% 5721 11-29-21
271 ErrortheCucco 3.6% 5730 11-29-21
272 Rikum22 3.5% 5733 11-29-21
273 sonic1001 3.4% 5741 11-29-21
274 AJSIV 3.4% 5744 11-29-21
274 TheChaosEmeraIds 3.4% 5744 11-29-21
276 syco1098 3.3% 5747 11-29-21
277 IDGeek121 3.3% 5749 11-29-21
277 Sonic the Hedgehod16 3.3% 5749 11-29-21
279 ASINISTERTACO 3.1% 5757 11-29-21
280 sonicfan9 3.0% 5764 11-29-21
281 themachoman202 2.9% 5774 11-29-21
282 MK 2.8% 5777 11-29-21
283 Fivavoa 2.7% 5783 11-29-21
284 Mr. Jones 2.7% 5785 11-29-21
285 djmat 2.6% 5787 11-29-21
286 arcfx1985 2.6% 5788 11-29-21
286 BlackArmsShadow 2.6% 5788 11-29-21
288 Sonique Hedgehog 2.6% 5789 11-29-21
289 FlandreScarlet9999vr 2.5% 5794 11-29-21
289 ptorflaxendrosis 2.5% 5794 11-29-21
291 Zeldocto 2.5% 5798 11-29-21
292 BeeAwwb 2.4% 5802 11-29-21
293 KaM Mark MaK 2.3% 5807 11-29-21
294 ShadouZaHejjihoggu 2.3% 5809 11-29-21
295 darkstarblaze 2.2% 5816 11-29-21
296 Sonic The Star 2.1% 5818 11-29-21
297 darkersupershadic 2.1% 5819 11-29-21
298 SpiritDragon1995 2.1% 5820 11-29-21
299 sonic29887 2.0% 5826 11-29-21
300 Sarger001 2.0% 5827 11-29-21
301 Grady219 2.0% 5828 11-29-21
302 Jawaah 1.9% 5833 11-29-21
302 shadowblast63 Player Banned 1.9% 5833 11-29-21
304 Antek 1.8% 5837 11-29-21
305 Klaus 1.8% 5839 11-29-21
306 BioShadow 1.6% 5847 11-29-21
307 IcKY 1.5% 5855 11-29-21
308 isaihtb11 1.4% 5862 11-29-21
308 SkyBon 1.4% 5862 11-29-21
310 Shanekilz 1.4% 5863 11-29-21
311 OhNoes! 1.3% 5867 11-29-21
312 zaktu40 1.3% 5869 11-29-21
313 gaara1234 1.2% 5872 11-29-21
313 S-MS32X-S 1.2% 5872 11-29-21
315 MastaToken 1.1% 5880 11-29-21
316 Mister_Slick 1.0% 5883 11-29-21
317 Sonic06Fan 1.0% 5887 11-29-21
318 Rush Hero 0.9% 5889 11-29-21
319 ChaosNexuss 0.9% 5890 11-29-21
320 oTaiIilLsS 0.9% 5893 11-29-21
321 SonicMega167 0.8% 5895 11-29-21
322 SilverK 0.8% 5896 11-29-21
323 gamed00d 0.8% 5898 11-29-21
324 Burningskull123 0.5% 5914 11-29-21
325 Heroes_Hater 0.5% 5917 11-29-21
326 Sonicontherun 0.3% 5926 11-29-21
327 antiwwe 0.2% 5932 11-29-21
328 Iwannabelink 0.2% 5934 11-29-21
329 Genuine Hedgehog 0.1% 5936 11-29-21
330 dragondragon18 0.1% 5940 11-29-21
331 SonicK100 0.1% 5941 11-29-21
332 Tyrouble 0.0% 5946 11-29-21
333 LancexExWx 0.0% 5947 11-29-21
333 neji_hyuuga 0.0% 5947 11-29-21
333 Over 0.0% 5947 11-29-21
333 sdj6707 Player Banned 0.0% 5947 11-29-21
333 Tran Sonic Fan Player Banned 0.0% 5947 11-29-21

This page is using the New Data Table System. [FUTURE]

Game ID: 3 | Category ID: 1
Hits: 3,423 | Hits This Month: 26 | DB Calls: 25 | Mem Usage: 1019.61 KB | Time: 0.06s | Printable

The Sonic Center v3.9
Copyright 2003-2011 by The Sonic Center Team.